Terminal Aerodrome Forecast
Issued by NWS

Home | Current Version | Previous Version | Text Only | Print | Product List | Glossary On
Versions: 1 2 3 4 5 6 7 8 9 10 11 12 13 14 15 16 17 18 19 20 21 22 23 24 25 26 27 28 29 30 31 32 33 34 35 36 37 38 39 40 41 42 43 44 45 46 47 48 49 50
000
FTUS43 KDMX 221128
TAFMCW
TAF
KMCW 221128Z 2212/2312 29007KT P6SM BKN200
     FM221700 30013KT P6SM SCT250
     FM222300 18007KT P6SM SKC
     FM230600 19007KT P6SM SCT150 WS020/26035KT=

USA.gov is the U.S. government's official web portal to all federal, state and local government web resources and services.